This is the latest recevied weather packets stored in our database for station/object SQ6ELQ-11. If no packets are shown the sender has not sent any weather packets the latest 10 day(s).
| Time | Temp. | Humidity | Pressure | Rain* | Wind** | Luminosity | Snow |
|---|---|---|---|---|---|---|---|
| 1777447991 | 2.78° C | 43% | 1026.9 hPa | 0 mm | - | - | - |
| 1777446856 | 2.22° C | 46% | 1026.6 hPa | 0 mm | - | - | - |
| 1777445836 | 2.22° C | 47% | 1026.5 hPa | 0 mm | - | - | - |
| 1777444803 | 1.67° C | 49% | 1026.2 hPa | 0 mm | - | - | - |
| 1777443722 | 1.11° C | 51% | 1026 hPa | 0 mm | - | - | - |
| 1777442752 | 1.11° C | 52% | 1026.1 hPa | 0 mm | - | - | - |
| 1777441625 | 0.56° C | 54% | 1025.8 hPa | 0 mm | - | - | - |
| 1777440582 | -0.56° C | 55% | 1025.5 hPa | 0 mm | - | - | - |
| 1777439451 | -2.22° C | 55% | 1025.5 hPa | 0 mm | - | - | - |
| 1777438402 | -3.33° C | 55% | 1025.4 hPa | 0 mm | - | - | - |
| 1777437405 | -3.89° C | 55% | 1025.3 hPa | 0 mm | - | - | - |
| 1777436343 | -4.44° C | 59% | 1025.2 hPa | 0 mm | - | - | - |
| 1777435331 | -4.44° C | 59% | 1025.1 hPa | 0 mm | - | - | - |
| 1777434246 | -4.44° C | 58% | 1024.8 hPa | 0 mm | - | - | - |
| 1777433097 | -4.44° C | 59% | 1024.8 hPa | 0 mm | - | - | - |
| 1777432032 | -3.89° C | 58% | 1024.7 hPa | 0 mm | - | - | - |
| 1777431017 | -3.89° C | 57% | 1024.6 hPa | 0 mm | - | - | - |
| 1777429874 | -3.33° C | 56% | 1024.7 hPa | 0 mm | - | - | - |
| 1777428729 | -3.33° C | 56% | 1024.6 hPa | 0 mm | - | - | - |
| 1777427557 | -0.56° C | 56% | 1026.3 hPa | 0 mm | - | - | - |
| 1777426519 | -0.56° C | 56% | 1026.2 hPa | 0 mm | - | - | - |
| 1777425411 | -3.33° C | 56% | 1024.1 hPa | 0 mm | - | - | - |
| 1777424382 | -3.33° C | 56% | 1024 hPa | 0 mm | - | - | - |
| 1777423205 | -2.78° C | 55% | 1023.9 hPa | 0 mm | - | - | - |
* Rain latest hour (hover to see other rain measurements)
** Current wind speed in m/s (hover to see current wind gust speed)